• Join FlightAware (Why Join?)
  • Login
  • US Flag 
02:07PM EDT


 

Airport Tracker/Info


-or-


 

Live Flight TrackerFlight Track Log ✈ SWA830 ✈ 04-Jan-2014 ✈ KMSP - KDEN

Flight Track Log - Related Links

Times and Time Zones

All times are in EST time to prevent confusion due to time zone crossing. See the SWA830 flight status page for this flight to view local times or setup timezone preferences in your user account.

Time Position Orientation Groundspeed Altitude Reporting Facility
EST Latitude Longitude Course Direction KTS MPH feet Rate Location/Type
05:57PM 44.8833 -93.2667 268° West 176 203 2,400  Level Minneapolis TRACON
05:58PM 44.8828 -93.2942 268° West 200 230 3,200 2,520 Climbing Minneapolis Center
05:59PM 44.8144 -93.3594 214° Southwest 270 311 6,500 3,360 Climbing Minneapolis Center
06:00PM 44.7547 -93.4181 215° Southwest 269 310 10,100 2,280 Climbing Minneapolis Center
06:01PM 44.7128 -93.5136 238° Southwest 294 338 11,200 1,920 Climbing Minneapolis Center
06:02PM 44.6619 -93.6261 238° Southwest 340 391 14,100 2,700 Climbing Minneapolis Center
06:03PM 44.6103 -93.7406 238° Southwest 349 402 16,800 2,400 Climbing Minneapolis Center
06:04PM 44.5589 -93.8544 238° Southwest 348 400 19,100 1,860 Climbing Minneapolis Center
06:05PM 44.5047 -93.9722 237° Southwest 357 411 20,600 2,460 Climbing Minneapolis Center
06:06PM 44.4375 -94.1175 237° Southwest 369 425 24,200 3,120 Climbing Minneapolis Center
06:07PM 44.3900 -94.2228 238° Southwest 330 380 27,100 2,280 Climbing Minneapolis Center
06:08PM 44.3492 -94.3269 241° Southwest 311 358 28,900 1,260 Climbing Minneapolis Center
06:09PM 44.3072 -94.4339 241° Southwest 313 360 29,700 780 Climbing Minneapolis Center
06:10PM 44.2608 -94.5469 240° Southwest 331 381 30,600 900 Climbing Minneapolis Center
06:11PM 44.2083 -94.6792 241° Southwest 344 396 31,600 900 Climbing Minneapolis Center
06:12PM 44.1600 -94.7978 240° Southwest 351 404 32,500 960 Climbing Minneapolis Center
06:13PM 44.1119 -94.9189 241° Southwest 356 410 33,600 1,080 Climbing Minneapolis Center
06:14PM 44.0633 -95.0375 240° Southwest 354 407 34,800 1,020 Climbing Minneapolis Center
06:15PM 44.0156 -95.1533 240° Southwest 348 400 35,700 540 Climbing Minneapolis Center
06:16PM 43.9678 -95.2706 241° Southwest 348 400 36,000 120 Climbing Minneapolis Center
06:17PM 43.9183 -95.3886 240° Southwest 351 404 36,000  Level Minneapolis Center
06:18PM 43.8683 -95.5075 240° Southwest 354 407 36,000  Level Minneapolis Center
06:19PM 43.8183 -95.6281 240° Southwest 358 412 36,000  Level Minneapolis Center
06:21PM 43.7575 -95.7717 240° Southwest 360 414 36,000  Level Minneapolis Center
06:22PM 43.7075 -95.8917 240° Southwest 359 413 36,000  Level Minneapolis Center
06:23PM 43.6561 -96.0128 240° Southwest 363 418 36,000  Level Minneapolis Center
06:24PM 43.6047 -96.1328 239° Southwest 362 417 36,000  Level Minneapolis Center
06:25PM 43.5528 -96.2536 239° Southwest 364 419 36,000  Level Minneapolis Center
06:26PM 43.5019 -96.3750 240° Southwest 365 420 36,000  Level Minneapolis Center
06:27PM 43.4494 -96.4956 239° Southwest 365 420 36,000  Level Minneapolis Center
06:28PM 43.3961 -96.6158 239° Southwest 367 422 36,000  Level Minneapolis Center
06:29PM 43.3439 -96.7394 240° Southwest 371 427 36,000  Level Minneapolis Center
06:30PM 43.2906 -96.8644 240° Southwest 377 434 36,000  Level Minneapolis Center
06:31PM 43.2261 -97.0083 238° Southwest 372 428 36,000  Level Minneapolis Center
06:32PM 43.1733 -97.1281 239° Southwest 369 425 36,000  Level Minneapolis Center
06:33PM 43.1183 -97.2494 238° Southwest 373 429 36,000  Level Minneapolis Center
06:34PM 43.0658 -97.3717 240° Southwest 374 430 36,000  Level Minneapolis Center
06:35PM 43.0108 -97.4911 238° Southwest 373 429 36,000  Level Minneapolis Center
06:36PM 42.9586 -97.6147 240° Southwest 375 432 36,000  Level Minneapolis Center
06:37PM 42.9042 -97.7358 238° Southwest 374 430 36,000  Level Minneapolis Center
06:38PM 42.8503 -97.8578 239° Southwest 376 433 36,000  Level Minneapolis Center
06:39PM 42.7833 -98.0028 238° Southwest 377 434 36,000  Level Minneapolis Center
06:40PM 42.7264 -98.1233 237° Southwest 378 435 36,000  Level Minneapolis Center
06:41PM 42.6736 -98.2433 239° Southwest 382 440 36,000  Level Minneapolis Center
06:42PM 42.6181 -98.3658 238° Southwest 382 440 36,000  Level Minneapolis Center
06:43PM 42.5622 -98.4875 238° Southwest 380 437 36,000  Level Minneapolis Center
06:44PM 42.5053 -98.6097 238° Southwest 383 441 36,000  Level Minneapolis Center
06:45PM 42.4503 -98.7306 238° Southwest 380 437 36,000  Level Minneapolis Center
06:46PM 42.3844 -98.8775 239° Southwest 380 437 36,000  Level Minneapolis Center
06:47PM 42.3303 -98.9989 239° Southwest 378 435 36,000  Level Minneapolis Center
06:48PM 42.2758 -99.1200 239° Southwest 378 435 36,000  Level Minneapolis Center
06:49PM 42.2211 -99.2411 239° Southwest 377 434 36,000  Level Denver Center
06:50PM 42.1658 -99.3608 238° Southwest 377 434 36,000  Level Denver Center
06:51PM 42.1106 -99.4828 239° Southwest 379 436 36,000  Level Denver Center
06:52PM 42.0444 -99.6272 238° Southwest 379 436 36,000  Level Denver Center
06:53PM 41.9869 -99.7525 238° Southwest 381 438 36,000  Level Denver Center
06:54PM 41.9339 -99.8681 238° Southwest 382 440 36,000  Level Denver Center
06:55PM 41.8803 -99.9853 238° Southwest 383 441 36,000  Level Denver Center
06:56PM 41.8167 -100.1206 238° Southwest 385 443 36,000  Level Denver Center
06:57PM 41.7625 -100.2367 238° Southwest 384 442 36,000  Level Denver Center
06:59PM 41.6986 -100.3703 237° Southwest 383 441 36,000  Level Denver Center
07:00PM 41.6436 -100.4878 238° Southwest 388 447 36,000  Level Denver Center
07:01PM 41.5792 -100.6233 238° Southwest 387 445 36,000  Level Denver Center
07:02PM 41.5258 -100.7392 238° Southwest 386 444 36,000  Level Denver Center
07:03PM 41.4808 -100.8861 248° West 384 442 36,000  Level Denver Center
07:04PM 41.4428 -101.0108 248° West 382 440 36,000  Level Denver Center
07:05PM 41.3983 -101.1550 248° West 380 437 36,000  Level Denver Center
07:06PM 41.3611 -101.2803 248° West 381 438 36,000  Level Denver Center
07:07PM 41.2981 -101.4369 242° Southwest 379 436 36,000  Level Denver Center
07:08PM 41.2447 -101.5511 238° Southwest 380 437 36,000  Level Denver Center
07:09PM 41.1828 -101.6856 239° Southwest 383 441 36,000  Level Denver Center
07:10PM 41.1292 -101.8008 238° Southwest 383 441 36,000  Level Denver Center
07:11PM 41.0661 -101.9358 238° Southwest 386 444 36,000  Level Denver Center
07:12PM 41.0117 -102.0506 238° Southwest 386 444 36,000  Level Denver Center
07:13PM 40.9575 -102.1658 238° Southwest 386 444 36,000  Level Denver Center
07:14PM 40.8922 -102.3000 237° Southwest 389 448 36,000  Level Denver Center
07:15PM 40.8389 -102.4144 238° Southwest 385 443 36,000  Level Denver Center
07:16PM 40.7750 -102.5483 238° Southwest 385 443 36,000  Level Denver Center
07:17PM 40.7197 -102.6628 238° Southwest 387 445 36,000  Level Denver Center
07:18PM 40.6661 -102.7750 238° Southwest 387 445 36,000  Level Denver Center
07:19PM 40.5961 -102.9175 237° Southwest 388 447 36,000  Level Denver Center
07:20PM 40.5392 -103.0378 238° Southwest 389 448 36,000 -60 Level Denver Center
07:21PM 40.4806 -103.1553 237° Southwest 385 443 35,900 -1,800 Descending Denver Center
07:22PM 40.4239 -103.2728 238° Southwest 382 440 32,300 -2,940 Descending Denver Center
07:23PM 40.3642 -103.3931 237° Southwest 392 451 29,900 -2,160 Descending Denver Center
07:25PM 40.3078 -103.5069 237° Southwest 375 432 27,500 -2,220 Descending Denver Center
07:26PM 40.2442 -103.6378 238° Southwest 354 407 24,900 -2,100 Descending Denver Center
07:27PM 40.2169 -103.7700 255° West 335 386 23,200 -1,440 Descending Denver Center
07:28PM 40.1883 -103.8811 251° West 299 344 22,000 -1,260 Descending Denver Center
07:29PM 40.1461 -103.9714 239° Southwest 291 335 20,400 -1,560 Descending Denver Center
07:30PM 40.0969 -104.0769 239° Southwest 274 315 18,500 -1,680 Descending Denver Center
07:31PM 40.0589 -104.1594 239° Southwest 264 304 17,000 -1,440 Descending Denver Center
07:32PM 40.0194 -104.2428 238° Southwest 249 287 15,600 -1,020 Descending Denver Center
07:33PM 39.9831 -104.3214 239° Southwest 253 291 15,000 -300 Descending Denver Center
07:34PM 39.9467 -104.3989 239° Southwest 251 289 15,100  Climbing Denver Center
07:35PM 39.9000 -104.4833 234° Southwest 255 293 15,100  Level Denver TRACON
07:36PM 39.8350 -104.5003 191° South 276 318 15,100 -660 Level Denver Center
07:37PM 39.7578 -104.5025 181° South 276 318 13,900 -1,500 Descending Denver Center
07:38PM 39.6822 -104.5044 181° South 271 312 12,100 -1,800 Descending Denver Center
07:39PM 39.6017 -104.5050 180° South 267 307 10,300 -1,500 Descending Denver Center
07:40PM 39.5300 -104.5053 180° South 260 299 9,000 -960 Descending Denver Center
07:41PM 39.4881 -104.5583 224° Southwest 245 282 8,400 -540 Descending Denver Center
07:42PM 39.5067 -104.6353 287° West 236 272 8,000 -180 Descending Denver Center
07:43PM 39.5658 -104.6450 353° North 222 255 8,100  Climbing Denver Center
07:44PM 39.6169 -104.6447 360° North 188 216 8,000 -60 Descending Denver Center
07:45PM 39.6700 -104.6433 North 178 205 8,000 -120 Level Denver Center
07:46PM 39.7192 -104.6431 360° North 177 204 7,800 -660 Descending Denver Center
07:47PM 39.7708 -104.6431 360° North 174 200 6,700 -960 Descending Denver Center
07:48PM 39.8100 -104.6414 North 144 166 5,900 -660 Descending Denver Center
07:49PM 39.8458 -104.6414 360° North 127 146 5,400 -540 Descending Denver Center
07:51PM 39.8500 -104.6667 339° North  Level FlightAware Approximate
07:58PM 39.8617 -104.6732 339° North  Level Estimated